Catàleg de serveis del Meteocat
Campanya meteocatpedra

Dades de l'estació automàtica Maials

?
?
Resum diari 22:00 TU
Dades diàries de l'estació meteorològica
Temperatura mitjana 13.5 °C
Temperatura màxima 18.0 °C 14:21 TU
Temperatura mínima 7.0 °C 5:30 TU
Humitat relativa mitjana 66%
Precipitació acumulada 0.0 mm
Ratxa màxima del vent (2 m) 37.8 km/h - 138º 18:46 TU
Irradiació solar global 7.3 MJ/m2

El tram horari està expressat en Temps Universal (TU). Cal sumar una hora en horari d'hivern i dues en horari d'estiu per passar a l'hora oficial.

Maials

Metadades estació meteorol´gica
Municipi Maials
Comarca Segrià
Altitud 350 m
Data alta 20.12.2000
Estat actual Operativa
Dades de període
Període
TU
TM
°C
TX
°C
TN
°C
HRM
%
PPT
mm
VVM (2 m)
km/h
DVM (2 m)
graus
VVX (2 m)
km/h
RS
W/m2
00:00 - 00:30 11.6 11.7 11.4 83 0.0 4.3 146 10.8 0
00:30 - 01:00 11.2 11.5 10.7 85 0.0 3.6 139 11.2 0
01:00 - 01:30 10.7 11.0 10.5 88 0.0 4.0 140 15.1 0
01:30 - 02:00 11.0 11.1 10.9 86 0.0 4.7 132 13.0 0
02:00 - 02:30 11.0 11.1 10.7 85 0.0 4.3 113 13.7 0
02:30 - 03:00 10.7 10.8 10.6 85 0.0 4.0 100 12.2 0
03:00 - 03:30 10.6 10.7 10.5 85 0.0 3.2 119 9.7 0
03:30 - 04:00 10.1 10.5 9.5 87 0.0 2.5 82 6.8 0
04:00 - 04:30 8.4 9.4 7.8 93 0.0 0.4 226 2.5 0
04:30 - 05:00 7.4 8.0 7.1 96 0.0 0.0 232 2.2 0
05:00 - 05:30 7.3 7.7 7.0 96 0.0 0.4 23 3.2 7
05:30 - 06:00 7.4 7.7 7.0 97 0.0 0.7 25 4.3 27
06:00 - 06:30 8.1 8.4 7.6 95 0.0 1.1 6 5.4 59
06:30 - 07:00 9.4 10.6 8.4 91 0.0 0.7 63 3.2 119
07:00 - 07:30 10.8 11.1 10.6 87 0.0 1.1 93 4.3 58
07:30 - 08:00 11.2 11.3 11.0 84 0.0 1.8 65 7.6 39
08:00 - 08:30 10.7 11.0 10.5 88 0.0 1.1 348 5.0 70
08:30 - 09:00 10.9 11.1 10.7 87 0.0 4.3 19 12.2 149
09:00 - 09:30 11.6 12.6 11.1 81 0.0 6.1 48 15.1 158
09:30 - 10:00 13.7 14.4 12.7 58 0.0 10.1 70 21.6 254
10:00 - 10:30 14.8 15.2 14.4 50 0.0 9.0 80 19.4 281
10:30 - 11:00 15.6 15.8 15.2 47 0.0 5.4 85 14.4 263
11:00 - 11:30 16.3 16.6 15.8 46 0.0 3.6 102 13.7 258
11:30 - 12:00 16.7 16.8 16.6 41 0.0 5.0 101 22.3 219
12:00 - 12:30 17.1 17.3 16.7 42 0.0 5.0 109 16.9 234
12:30 - 13:00 17.2 17.2 17.1 40 0.0 9.4 133 24.1 234
13:00 - 13:30 17.1 17.2 17.0 42 0.0 9.4 130 23.8 240
13:30 - 14:00 17.4 17.7 17.2 44 0.0 7.6 106 22.0 250
14:00 - 14:30 17.9 18.0 17.7 43 0.0 7.9 124 27.7 216
14:30 - 15:00 18.0 18.0 17.9 42 0.0 11.5 129 28.8 188
15:00 - 15:30 17.7 17.9 17.6 43 0.0 10.4 134 28.8 133
15:30 - 16:00 17.6 17.8 17.5 44 0.0 10.4 131 27.4 138
16:00 - 16:30 17.5 17.7 17.3 47 0.0 11.9 143 31.0 182
16:30 - 17:00 17.0 17.3 16.8 50 0.0 13.0 143 32.4 116
17:00 - 17:30 16.5 16.8 16.3 51 0.0 8.6 140 23.8 69
17:30 - 18:00 16.1 16.4 15.9 53 0.0 9.4 149 22.3 56
18:00 - 18:30 15.8 15.9 15.7 55 0.0 13.7 149 34.2 19
18:30 - 19:00 15.5 15.7 15.3 56 0.0 13.3 128 37.8 5
19:00 - 19:30 15.2 15.4 15.0 58 0.0 11.5 110 27.4 4
19:30 - 20:00 14.9 15.0 14.7 57 0.0 5.8 107 17.6 3
20:00 - 20:30 14.9 15.2 14.7 57 0.0 5.4 131 15.1 3
20:30 - 21:00 14.8 15.0 14.5 55 0.0 5.4 146 15.8 3
21:00 - 21:30 14.1 14.7 13.8 57 0.0 4.0 136 16.6 3
21:30 - 22:00 14.8 15.1 14.4 54 0.0 5.4 136 20.2 3
22:00 - 22:30 14.9 15.2 14.4 54 0.0 4.0 147 13.7 4

Les dades en taronja només han passat un control de qualitat automàtic. Resta pendent la seva validació definitiva.